Time;durP1;ratioP1;P1;durP2;ratioP2;P2;SDS_P1;SDS_P2;PMS_P1;PMS_P2;Temp;Humidity;BMP_temperature;BMP_pressure;BME280_temperature;BME280_humidity;BME280_pressure;Samples;Min_cycle;Max_cycle;Signal;HPM_P1;HPM_P2
2022/11/26 00:00:30;;;;;;;47.15;11.40;;;;;;;;;;4990796;28;20032;-73
2022/11/26 00:02:56;;;;;;;62.10;12.48;;;;;;;;;;4991174;28;20034;-73
2022/11/26 00:05:22;;;;;;;23.95;10.52;;;;;;;;;;4966721;28;20042;-73
2022/11/26 00:07:54;;;;;;;54.08;11.45;;;;;;;;;;4980997;28;20038;-73
2022/11/26 00:10:24;;;;;;;83.35;15.15;;;;;;;;;;5002391;28;20033;-73
2022/11/26 00:12:51;;;;;;;48.38;12.15;;;;;;;;;;5006402;28;20041;-73
2022/11/26 00:15:16;;;;;;;57.95;11.93;;;;;;;;;;5006088;28;20037;-73
2022/11/26 00:17:42;;;;;;;85.35;12.80;;;;;;;;;;5006461;28;20037;-73
2022/11/26 00:20:08;;;;;;;61.03;12.20;;;;;;;;;;4993053;28;20543;-73
2022/11/26 00:22:38;;;;;;;48.20;10.13;;;;;;;;;;5009400;28;20030;-73
2022/11/26 00:25:11;;;;;;;35.22;11.32;;;;;;;;;;4976755;28;20030;-73
2022/11/26 00:27:37;;;;;;;30.88;10.50;;;;;;;;;;4974089;28;20041;-73
2022/11/26 00:30:16;;;;;;;21.70;9.23;;;;;;;;;;4995391;28;20462;-73
2022/11/26 00:32:44;;;;;;;31.88;11.35;;;;;;;;;;5011797;28;20049;-73
2022/11/26 00:35:15;;;;;;;43.60;8.68;;;;;;;;;;5012457;28;20042;-73
2022/11/26 00:37:42;;;;;;;39.85;9.73;;;;;;;;;;4992923;28;20037;-73
2022/11/26 00:40:13;;;;;;;10.13;8.23;;;;;;;;;;4975209;28;20056;-73
2022/11/26 00:42:41;;;;;;;63.90;13.13;;;;;;;;;;5008767;28;20388;-73
2022/11/26 00:45:17;;;;;;;41.40;10.63;;;;;;;;;;5004945;28;20400;-73
2022/11/26 00:47:45;;;;;;;17.05;8.00;;;;;;;;;;5004617;28;20022;-73
2022/11/26 00:50:20;;;;;;;23.95;8.15;;;;;;;;;;5003551;28;20372;-73
2022/11/26 00:52:47;;;;;;;37.15;10.65;;;;;;;;;;5019450;28;20041;-73
2022/11/26 00:55:21;;;;;;;14.35;7.25;;;;;;;;;;5010226;28;20037;-73
2022/11/26 00:57:49;;;;;;;27.27;9.32;;;;;;;;;;5006946;28;20488;-73
2022/11/26 01:00:16;;;;;;;44.85;8.43;;;;;;;;;;4999506;28;20058;-73
2022/11/26 01:02:42;;;;;;;9.93;6.95;;;;;;;;;;5000031;28;20037;-73
2022/11/26 01:05:10;;;;;;;20.25;8.45;;;;;;;;;;4970445;28;20038;-73
2022/11/26 01:07:38;;;;;;;21.73;9.18;;;;;;;;;;4992145;28;20065;-73
2022/11/26 01:10:27;;;;;;;23.40;8.95;;;;;;;;;;5016926;28;20026;-73
2022/11/26 01:12:55;;;;;;;31.15;9.75;;;;;;;;;;5001596;28;20039;-73
2022/11/26 01:15:29;;;;;;;23.27;9.63;;;;;;;;;;4984817;28;20030;-73
2022/11/26 01:17:57;;;;;;;24.13;9.95;;;;;;;;;;5009975;28;20034;-73
2022/11/26 01:20:27;;;;;;;61.78;13.57;;;;;;;;;;5014660;28;20034;-73
2022/11/26 01:22:57;;;;;;;52.03;11.18;;;;;;;;;;5004081;23;20080;-75
2022/11/26 01:25:26;;;;;;;18.85;10.05;;;;;;;;;;5002862;28;20594;-74
2022/11/26 01:27:54;;;;;;;22.58;10.88;;;;;;;;;;4974925;28;20034;-74
2022/11/26 01:30:29;;;;;;;42.15;10.07;;;;;;;;;;5010109;28;20022;-75
2022/11/26 01:32:59;;;;;;;15.95;10.63;;;;;;;;;;5016628;28;20480;-74
2022/11/26 01:35:25;;;;;;;49.65;11.23;;;;;;;;;;4956791;28;20275;-74
2022/11/26 01:37:59;;;;;;;24.70;11.18;;;;;;;;;;5010998;28;20037;-74
2022/11/26 01:40:25;;;;;;;21.40;9.85;;;;;;;;;;4975460;28;20037;-74
2022/11/26 01:43:05;;;;;;;33.35;11.15;;;;;;;;;;5008607;28;20026;-74
2022/11/26 01:45:36;;;;;;;10.63;8.88;;;;;;;;;;4990057;28;20038;-74
2022/11/26 01:48:21;;;;;;;13.02;9.02;;;;;;;;;;4976258;28;20044;-74
2022/11/26 01:51:01;;;;;;;13.60;10.27;;;;;;;;;;5017785;28;20030;-74
2022/11/26 01:53:29;;;;;;;14.52;10.95;;;;;;;;;;5019358;28;20493;-74
2022/11/26 01:56:02;;;;;;;12.38;9.45;;;;;;;;;;4998254;28;20483;-74
2022/11/26 01:58:32;;;;;;;13.98;9.18;;;;;;;;;;5021773;28;20033;-74
2022/11/26 02:01:02;;;;;;;15.70;11.10;;;;;;;;;;4998387;28;20034;-74
2022/11/26 02:03:40;;;;;;;17.73;9.75;;;;;;;;;;5013263;28;20034;-74
2022/11/26 02:06:12;;;;;;;16.40;9.70;;;;;;;;;;5002914;28;20516;-74
2022/11/26 02:08:40;;;;;;;10.23;8.35;;;;;;;;;;5010960;28;20033;-74
2022/11/26 02:11:22;;;;;;;13.40;8.77;;;;;;;;;;5021932;28;20034;-74
2022/11/26 02:13:50;;;;;;;10.35;8.43;;;;;;;;;;4989501;28;20499;-74
2022/11/26 02:16:24;;;;;;;10.45;7.80;;;;;;;;;;4995109;28;20049;-75
2022/11/26 02:19:13;;;;;;;11.40;7.88;;;;;;;;;;5000392;28;20504;-75
2022/11/26 02:21:42;;;;;;;13.85;10.45;;;;;;;;;;4994316;28;20041;-75
2022/11/26 02:24:29;;;;;;;10.98;9.15;;;;;;;;;;5008798;28;20033;-75
2022/11/26 02:26:57;;;;;;;12.63;9.65;;;;;;;;;;5002399;28;20047;-75
2022/11/26 02:29:52;;;;;;;10.75;9.32;;;;;;;;;;4990389;28;20034;-75
2022/11/26 02:32:26;;;;;;;8.32;7.43;;;;;;;;;;4991597;28;20038;-75
2022/11/26 02:34:54;;;;;;;;;;;;;;;;;;5002427;28;20025;-75
2022/11/26 02:37:26;;;;;;;11.07;8.43;;;;;;;;;;4994646;28;20399;-75
2022/11/26 02:39:51;;;;;;;10.00;8.07;;;;;;;;;;5011594;28;20040;-75
2022/11/26 02:42:24;;;;;;;9.82;8.32;;;;;;;;;;5019638;28;20031;-75
2022/11/26 02:44:56;;;;;;;11.82;9.50;;;;;;;;;;5007805;28;20030;-75
2022/11/26 02:47:28;;;;;;;9.73;7.22;;;;;;;;;;5006248;28;20042;-75
2022/11/26 02:49:57;;;;;;;8.13;7.35;;;;;;;;;;4989020;28;20037;-75
2022/11/26 02:52:26;;;;;;;7.95;7.15;;;;;;;;;;5021114;28;20404;-75
2022/11/26 02:54:53;;;;;;;10.10;6.57;;;;;;;;;;5013606;28;20044;-75
2022/11/26 02:57:23;;;;;;;9.10;7.68;;;;;;;;;;5006859;28;20034;-75
2022/11/26 02:59:49;;;;;;;10.95;7.78;;;;;;;;;;5010621;28;20025;-75
2022/11/26 03:02:26;;;;;;;14.48;8.90;;;;;;;;;;4976298;28;20141;-75
2022/11/26 03:04:54;;;;;;;9.73;8.00;;;;;;;;;;5008328;28;20514;-75
2022/11/26 03:07:25;;;;;;;10.93;7.70;;;;;;;;;;4993442;28;20030;-75
2022/11/26 03:09:54;;;;;;;8.43;6.90;;;;;;;;;;5004495;28;20042;-75
2022/11/26 03:12:21;;;;;;;8.70;6.82;;;;;;;;;;5007353;28;20030;-75
2022/11/26 03:14:49;;;;;;;8.93;7.03;;;;;;;;;;5010449;28;20041;-75
2022/11/26 03:17:15;;;;;;;10.10;7.70;;;;;;;;;;5003789;28;20033;-75
2022/11/26 03:19:41;;;;;;;11.57;6.10;;;;;;;;;;4984290;28;20026;-75
2022/11/26 03:22:11;;;;;;;7.72;6.75;;;;;;;;;;4990126;28;20033;-75
2022/11/26 03:24:38;;;;;;;8.43;6.75;;;;;;;;;;4990857;28;20022;-74
2022/11/26 03:27:08;;;;;;;9.93;7.45;;;;;;;;;;4988644;28;20053;-75
2022/11/26 03:29:36;;;;;;;8.73;7.93;;;;;;;;;;5003122;28;20048;-74
2022/11/26 03:32:10;;;;;;;11.35;8.73;;;;;;;;;;4985245;28;20033;-75
2022/11/26 03:34:41;;;;;;;14.02;9.13;;;;;;;;;;5008495;28;20033;-74
2022/11/26 03:37:10;;;;;;;9.05;6.50;;;;;;;;;;5016539;28;20037;-74
2022/11/26 03:39:35;;;;;;;10.60;8.10;;;;;;;;;;5003909;28;20037;-75
2022/11/26 03:42:06;;;;;;;12.85;7.65;;;;;;;;;;5006317;28;20542;-74
2022/11/26 03:44:32;;;;;;;13.93;7.60;;;;;;;;;;4985577;28;20030;-75
2022/11/26 03:47:00;;;;;;;16.15;9.50;;;;;;;;;;5006248;28;20026;-74
2022/11/26 03:49:31;;;;;;;11.23;7.88;;;;;;;;;;5009592;28;20399;-74
2022/11/26 03:51:56;;;;;;;9.00;8.00;;;;;;;;;;5004997;28;20026;-75
2022/11/26 03:54:22;;;;;;;9.50;7.82;;;;;;;;;;5008164;28;20092;-74
2022/11/26 03:56:48;;;;;;;10.07;8.20;;;;;;;;;;5003725;28;20102;-75
2022/11/26 03:59:16;;;;;;;16.10;8.35;;;;;;;;;;5003890;28;20045;-74
2022/11/26 04:01:42;;;;;;;9.05;7.45;;;;;;;;;;5001133;28;20115;-75
2022/11/26 04:04:10;;;;;;;10.15;8.13;;;;;;;;;;4988182;28;20033;-75
2022/11/26 04:06:41;;;;;;;10.40;7.65;;;;;;;;;;5007948;28;20030;-75
2022/11/26 04:09:09;;;;;;;8.95;6.85;;;;;;;;;;5005256;28;20033;-74
2022/11/26 04:11:35;;;;;;;11.45;7.70;;;;;;;;;;5003782;28;20027;-75
2022/11/26 04:14:03;;;;;;;7.43;6.60;;;;;;;;;;4988627;28;20038;-74
2022/11/26 04:16:31;;;;;;;13.25;7.30;;;;;;;;;;4990247;28;20507;-75
2022/11/26 04:18:59;;;;;;;15.07;8.82;;;;;;;;;;5007709;28;20026;-75
2022/11/26 04:21:25;;;;;;;24.02;9.38;;;;;;;;;;5006756;28;20053;-75
2022/11/26 04:23:53;;;;;;;12.80;9.32;;;;;;;;;;4994078;28;20096;-74
2022/11/26 04:26:24;;;;;;;123.43;25.08;;;;;;;;;;4981416;28;20033;-74
2022/11/26 04:28:52;;;;;;;97.20;16.70;;;;;;;;;;5018346;28;20030;-74
2022/11/26 04:31:20;;;;;;;14.77;8.40;;;;;;;;;;5006736;28;20034;-75
2022/11/26 04:33:49;;;;;;;88.60;13.98;;;;;;;;;;5006406;28;20038;-75
2022/11/26 04:36:17;;;;;;;32.05;11.32;;;;;;;;;;4991235;28;20045;-75
2022/11/26 04:38:45;;;;;;;49.60;12.75;;;;;;;;;;4973621;28;20030;-74
2022/11/26 04:41:14;;;;;;;31.00;11.20;;;;;;;;;;4994236;28;20034;-74
2022/11/26 04:43:45;;;;;;;45.00;12.98;;;;;;;;;;4994344;28;20073;-75
2022/11/26 04:46:10;;;;;;;120.25;16.30;;;;;;;;;;4990355;28;20030;-75
2022/11/26 04:48:36;;;;;;;29.02;9.20;;;;;;;;;;4966697;28;20510;-75
2022/11/26 04:51:02;;;;;;;57.90;12.48;;;;;;;;;;5006694;28;20033;-75
2022/11/26 04:53:30;;;;;;;186.57;20.27;;;;;;;;;;5004581;28;20037;-74
2022/11/26 04:55:56;;;;;;;108.72;14.88;;;;;;;;;;5001942;28;20542;-75
2022/11/26 04:58:22;;;;;;;102.10;13.95;;;;;;;;;;5002883;28;20479;-74
2022/11/26 05:00:48;;;;;;;102.30;16.75;;;;;;;;;;4981731;28;20511;-75
2022/11/26 05:03:14;;;;;;;77.05;14.05;;;;;;;;;;5004327;28;20033;-74
2022/11/26 05:05:42;;;;;;;20.92;8.43;;;;;;;;;;5003751;28;20109;-74
2022/11/26 05:08:10;;;;;;;73.38;12.35;;;;;;;;;;5001894;28;20022;-74
2022/11/26 05:10:38;;;;;;;34.30;9.70;;;;;;;;;;5004562;28;20107;-75
2022/11/26 05:13:06;;;;;;;55.88;11.75;;;;;;;;;;4986124;28;20030;-75
2022/11/26 05:15:32;;;;;;;18.85;9.13;;;;;;;;;;4989478;28;20030;-75
2022/11/26 05:18:00;;;;;;;9.50;8.27;;;;;;;;;;5006934;28;20018;-75
2022/11/26 05:20:28;;;;;;;9.32;6.95;;;;;;;;;;5010366;28;20368;-76
2022/11/26 05:22:57;;;;;;;11.30;8.70;;;;;;;;;;4998273;28;20040;-75
2022/11/26 05:25:23;;;;;;;12.60;8.55;;;;;;;;;;5011617;28;20034;-75
2022/11/26 05:27:53;;;;;;;7.68;6.43;;;;;;;;;;5002762;28;20038;-75
2022/11/26 05:30:21;;;;;;;7.07;6.13;;;;;;;;;;5007765;28;20383;-75
2022/11/26 05:32:52;;;;;;;10.48;6.68;;;;;;;;;;5010495;28;20034;-75
2022/11/26 05:35:20;;;;;;;10.73;6.93;;;;;;;;;;5010944;28;20029;-75
2022/11/26 05:37:46;;;;;;;9.80;7.93;;;;;;;;;;4992569;28;20498;-74
2022/11/26 05:40:12;;;;;;;11.43;7.25;;;;;;;;;;4997360;28;20033;-77
2022/11/26 05:42:38;;;;;;;16.60;7.15;;;;;;;;;;5003226;28;20030;-75
2022/11/26 05:45:05;;;;;;;26.98;8.90;;;;;;;;;;5013730;28;20037;-74
2022/11/26 05:47:33;;;;;;;15.20;8.10;;;;;;;;;;5010569;28;20056;-74
2022/11/26 05:49:59;;;;;;;12.13;8.82;;;;;;;;;;4994941;28;20021;-75
2022/11/26 05:52:25;;;;;;;16.75;8.13;;;;;;;;;;5030205;28;20041;-74
2022/11/26 05:54:50;;;;;;;54.17;11.40;;;;;;;;;;5027870;28;20033;-74
2022/11/26 05:57:19;;;;;;;132.07;16.15;;;;;;;;;;4961349;28;20037;-74
2022/11/26 05:59:53;;;;;;;104.88;14.55;;;;;;;;;;4989605;28;20483;-74
2022/11/26 06:02:21;;;;;;;137.55;17.40;;;;;;;;;;5001204;28;20056;-75
2022/11/26 06:04:52;;;;;;;73.47;12.82;;;;;;;;;;5028263;28;20495;-74
2022/11/26 06:07:22;;;;;;;91.53;12.27;;;;;;;;;;4995329;28;20037;-75
2022/11/26 06:09:50;;;;;;;79.15;13.68;;;;;;;;;;5015040;28;20214;-74
2022/11/26 06:12:18;;;;;;;44.50;12.70;;;;;;;;;;5002934;28;20041;-74
2022/11/26 06:14:47;;;;;;;141.07;15.77;;;;;;;;;;4998827;28;20424;-74
2022/11/26 06:17:12;;;;;;;67.70;12.00;;;;;;;;;;5020547;28;20030;-74
2022/11/26 06:19:41;;;;;;;58.83;10.70;;;;;;;;;;5013428;28;20038;-74
2022/11/26 06:22:09;;;;;;;44.35;10.73;;;;;;;;;;5005523;28;20026;-74
2022/11/26 06:24:35;;;;;;;61.67;9.35;;;;;;;;;;5006780;28;20380;-74
2022/11/26 06:27:03;;;;;;;99.43;11.18;;;;;;;;;;5014726;28;20030;-75
2022/11/26 06:29:31;;;;;;;44.22;8.10;;;;;;;;;;5007249;28;20076;-74
2022/11/26 06:32:02;;;;;;;69.57;12.40;;;;;;;;;;4996680;28;20030;-75
2022/11/26 06:34:28;;;;;;;48.72;9.00;;;;;;;;;;5017638;28;20064;-75
2022/11/26 06:36:56;;;;;;;46.25;12.88;;;;;;;;;;5004884;28;20508;-74
2022/11/26 06:39:22;;;;;;;33.95;9.00;;;;;;;;;;5012302;28;20034;-75
2022/11/26 06:41:48;;;;;;;30.42;10.43;;;;;;;;;;5014267;28;20053;-75
2022/11/26 06:44:13;;;;;;;102.35;12.85;;;;;;;;;;5014863;28;20112;-75
2022/11/26 06:46:39;;;;;;;42.72;8.63;;;;;;;;;;4997751;28;20092;-75
2022/11/26 06:49:07;;;;;;;64.07;10.73;;;;;;;;;;4986046;28;20030;-74
2022/11/26 06:51:36;;;;;;;44.28;7.15;;;;;;;;;;5025032;28;20033;-74
2022/11/26 06:54:02;;;;;;;18.10;6.93;;;;;;;;;;5017123;28;20491;-74
2022/11/26 06:56:30;;;;;;;20.33;6.90;;;;;;;;;;5017999;28;20467;-74
2022/11/26 06:58:58;;;;;;;16.40;7.60;;;;;;;;;;5012629;28;20109;-74
2022/11/26 07:01:26;;;;;;;20.80;5.75;;;;;;;;;;5017827;28;20045;-74
2022/11/26 07:03:52;;;;;;;26.75;8.73;;;;;;;;;;5012614;28;20022;-74
2022/11/26 07:06:19;;;;;;;29.48;7.38;;;;;;;;;;5015575;28;20034;-75
2022/11/26 07:08:45;;;;;;;59.22;10.27;;;;;;;;;;5019989;28;20034;-74
2022/11/26 07:11:14;;;;;;;29.48;9.48;;;;;;;;;;5015278;28;20033;-74
2022/11/26 07:13:45;;;;;;;65.13;13.30;;;;;;;;;;5015435;28;20037;-74
2022/11/26 07:16:16;;;;;;;34.65;12.10;;;;;;;;;;5013375;28;20033;-75
2022/11/26 07:18:46;;;;;;;83.50;12.75;;;;;;;;;;5007180;28;20034;-74
2022/11/26 07:21:12;;;;;;;42.97;11.40;;;;;;;;;;4978548;28;20034;-74
2022/11/26 07:23:40;;;;;;;27.73;10.63;;;;;;;;;;5023511;23;20042;-80
2022/11/26 07:26:07;;;;;;;42.00;13.02;;;;;;;;;;5014153;28;20422;-80
2022/11/26 07:28:33;;;;;;;63.33;22.38;;;;;;;;;;5032387;28;20028;-81
2022/11/26 07:31:06;;;;;;;65.43;16.20;;;;;;;;;;5032068;28;20017;-83
2022/11/26 07:33:32;;;;;;;51.42;15.50;;;;;;;;;;5007247;28;20038;-80
2022/11/26 07:35:59;;;;;;;30.85;10.63;;;;;;;;;;5004390;28;20479;-80
2022/11/26 07:38:26;;;;;;;33.42;9.70;;;;;;;;;;4991871;28;20026;-80
2022/11/26 07:40:52;;;;;;;32.33;10.20;;;;;;;;;;4993753;28;20034;-81
2022/11/26 07:43:19;;;;;;;34.85;8.80;;;;;;;;;;5009087;28;20048;-81
2022/11/26 07:45:45;;;;;;;47.15;11.75;;;;;;;;;;4988083;28;20025;-80
2022/11/26 07:48:11;;;;;;;40.63;8.60;;;;;;;;;;4972947;28;20382;-80
2022/11/26 07:50:37;;;;;;;40.05;8.60;;;;;;;;;;5010017;28;20069;-80
2022/11/26 07:53:02;;;;;;;27.30;10.52;;;;;;;;;;4983093;28;20054;-80
2022/11/26 07:55:28;;;;;;;40.55;13.88;;;;;;;;;;5006559;28;20402;-80
2022/11/26 07:57:54;;;;;;;18.50;10.55;;;;;;;;;;5006410;28;20117;-80
2022/11/26 08:00:20;;;;;;;31.65;13.75;;;;;;;;;;4973059;28;20564;-81
2022/11/26 08:02:46;;;;;;;28.27;17.88;;;;;;;;;;4981784;28;20041;-81
2022/11/26 08:05:12;;;;;;;34.55;17.70;;;;;;;;;;5003837;28;20026;-81
2022/11/26 08:07:38;;;;;;;22.42;15.20;;;;;;;;;;5007932;28;20053;-81
2022/11/26 08:10:04;;;;;;;31.58;17.05;;;;;;;;;;4983992;28;20029;-81
2022/11/26 08:12:30;;;;;;;38.28;19.13;;;;;;;;;;5014261;28;20035;-81
2022/11/26 08:14:56;;;;;;;24.58;16.48;;;;;;;;;;5010480;28;20036;-81
2022/11/26 08:17:21;;;;;;;31.85;18.50;;;;;;;;;;5006317;28;20416;-79
2022/11/26 08:19:47;;;;;;;44.88;14.77;;;;;;;;;;4997938;28;20038;-82
2022/11/26 08:22:13;;;;;;;39.65;18.58;;;;;;;;;;4995655;28;20041;-82
2022/11/26 08:24:43;;;;;;;40.63;15.20;;;;;;;;;;5000856;28;20388;-81
2022/11/26 08:27:09;;;;;;;36.05;13.15;;;;;;;;;;4988275;28;20045;-81
2022/11/26 08:29:38;;;;;;;25.23;11.48;;;;;;;;;;4966913;28;20520;-82
2022/11/26 08:32:04;;;;;;;26.88;13.10;;;;;;;;;;5004246;28;20048;-81
2022/11/26 08:34:32;;;;;;;35.53;12.70;;;;;;;;;;4993678;28;20476;-81
2022/11/26 08:37:00;;;;;;;43.05;12.23;;;;;;;;;;5012971;28;20033;-81
2022/11/26 08:39:26;;;;;;;101.20;16.20;;;;;;;;;;5010748;28;20038;-81
2022/11/26 08:41:54;;;;;;;38.08;10.80;;;;;;;;;;4997845;28;20037;-82
2022/11/26 08:44:20;;;;;;;50.67;11.80;;;;;;;;;;4993483;28;20029;-81
2022/11/26 08:46:49;;;;;;;110.05;18.15;;;;;;;;;;4993579;28;20029;-81
2022/11/26 08:49:19;;;;;;;57.03;14.32;;;;;;;;;;4997879;28;20041;-82
2022/11/26 08:51:50;;;;;;;89.25;16.10;;;;;;;;;;4972545;28;20026;-83
2022/11/26 08:54:21;;;;;;;125.03;16.58;;;;;;;;;;4993416;28;20034;-83
2022/11/26 08:56:49;;;;;;;85.00;14.23;;;;;;;;;;4990496;28;20026;-83
2022/11/26 08:59:16;;;;;;;38.15;10.98;;;;;;;;;;4991776;28;20395;-83
2022/11/26 09:01:44;;;;;;;88.35;16.85;;;;;;;;;;5007552;28;20049;-83
2022/11/26 09:04:10;;;;;;;97.60;16.45;;;;;;;;;;4990544;28;20026;-83
2022/11/26 09:06:36;;;;;;;21.02;8.93;;;;;;;;;;4974010;28;20423;-84
2022/11/26 09:09:11;;;;;;;82.57;13.18;;;;;;;;;;5003059;28;20037;-84
2022/11/26 09:11:41;;;;;;;51.70;14.65;;;;;;;;;;4998549;28;20105;-87
2022/11/26 09:14:10;;;;;;;83.13;14.32;;;;;;;;;;4994376;28;20025;-83
2022/11/26 09:16:41;;;;;;;40.05;11.80;;;;;;;;;;4973065;28;20060;-84
2022/11/26 09:19:11;;;;;;;41.35;9.55;;;;;;;;;;5015104;28;20029;-83
2022/11/26 09:21:40;;;;;;;41.20;12.40;;;;;;;;;;5000442;28;20026;-83
2022/11/26 09:24:08;;;;;;;21.00;9.95;;;;;;;;;;5006684;28;20033;-84
2022/11/26 09:26:34;;;;;;;43.50;11.52;;;;;;;;;;4992310;28;20484;-83
2022/11/26 09:29:03;;;;;;;17.25;10.32;;;;;;;;;;4969595;28;20037;-83
2022/11/26 09:31:29;;;;;;;24.30;8.48;;;;;;;;;;4979976;28;20026;-83
2022/11/26 09:33:58;;;;;;;16.67;8.23;;;;;;;;;;4995769;28;20029;-83
2022/11/26 09:36:24;;;;;;;17.95;8.18;;;;;;;;;;5000667;28;20388;-84
2022/11/26 09:38:55;;;;;;;22.75;10.30;;;;;;;;;;4981330;28;20393;-83
2022/11/26 09:41:36;;;;;;;11.85;8.65;;;;;;;;;;5016839;28;20027;-84
2022/11/26 09:44:11;;;;;;;15.57;10.65;;;;;;;;;;5007417;28;20033;-83
2022/11/26 09:46:44;;;;;;;13.93;9.60;;;;;;;;;;5009858;28;20495;-83
2022/11/26 09:49:15;;;;;;;14.20;10.40;;;;;;;;;;4988682;28;20053;-84
2022/11/26 09:51:48;;;;;;;17.63;9.75;;;;;;;;;;4988682;28;20042;-84
2022/11/26 09:54:24;;;;;;;13.18;9.23;;;;;;;;;;4974347;28;20423;-84
2022/11/26 09:56:57;;;;;;;16.10;9.75;;;;;;;;;;5017999;28;20034;-84
2022/11/26 09:59:28;;;;;;;15.20;12.13;;;;;;;;;;5004478;28;20038;-84
2022/11/26 10:01:53;;;;;;;13.32;9.45;;;;;;;;;;4991211;28;20039;-84
2022/11/26 10:04:26;;;;;;;14.15;10.48;;;;;;;;;;4997888;28;20435;-84
2022/11/26 10:06:55;;;;;;;20.73;13.17;;;;;;;;;;5006371;28;20034;-84
2022/11/26 10:09:36;;;;;;;14.10;11.60;;;;;;;;;;5009707;28;20029;-84
2022/11/26 10:12:16;;;;;;;14.90;10.88;;;;;;;;;;5007815;28;20044;-84
2022/11/26 10:14:56;;;;;;;17.95;14.27;;;;;;;;;;5000225;28;20415;-84
2022/11/26 10:17:24;;;;;;;19.33;14.32;;;;;;;;;;4999249;28;20038;-84
2022/11/26 10:20:05;;;;;;;22.48;16.45;;;;;;;;;;5013341;28;20373;-86
2022/11/26 10:22:34;;;;;;;20.40;15.07;;;;;;;;;;5008473;28;20053;-83
2022/11/26 10:25:03;;;;;;;24.05;13.98;;;;;;;;;;4977430;28;20042;-82
2022/11/26 10:27:34;;;;;;;24.58;17.05;;;;;;;;;;4989376;28;20030;-83
2022/11/26 10:30:10;;;;;;;22.77;15.35;;;;;;;;;;4998908;28;20046;-83
2022/11/26 10:32:40;;;;;;;21.55;15.70;;;;;;;;;;4976282;28;20064;-83
2022/11/26 10:35:15;;;;;;;23.25;15.80;;;;;;;;;;5007588;28;20516;-83
2022/11/26 10:37:41;;;;;;;32.33;21.20;;;;;;;;;;5005666;28;20388;-83
2022/11/26 10:40:15;;;;;;;30.13;19.38;;;;;;;;;;4994401;28;20042;-83
2022/11/26 10:42:50;;;;;;;21.25;15.93;;;;;;;;;;4988267;28;20038;-83
2022/11/26 10:45:21;;;;;;;29.92;16.30;;;;;;;;;;4999049;28;20030;-83
2022/11/26 10:47:49;;;;;;;29.55;16.65;;;;;;;;;;5008799;28;20029;-83
2022/11/26 10:50:20;;;;;;;20.73;13.55;;;;;;;;;;4999075;28;20026;-83
2022/11/26 10:52:53;;;;;;;30.30;17.58;;;;;;;;;;4980273;28;20042;-83
2022/11/26 10:55:25;;;;;;;24.13;16.10;;;;;;;;;;4974761;28;20484;-83
2022/11/26 10:58:21;;;;;;;24.50;14.15;;;;;;;;;;5003204;28;20030;-84
2022/11/26 11:00:47;;;;;;;15.98;12.40;;;;;;;;;;5008058;28;20042;-82
2022/11/26 11:03:15;;;;;;;14.32;10.73;;;;;;;;;;5008736;28;20044;-83
2022/11/26 11:05:44;;;;;;;17.40;12.25;;;;;;;;;;5007809;28;20034;-84
2022/11/26 11:08:30;;;;;;;13.45;8.52;;;;;;;;;;4992095;28;20050;-83
2022/11/26 11:10:59;;;;;;;15.23;9.32;;;;;;;;;;4978504;28;20045;-82
2022/11/26 11:13:38;;;;;;;16.60;12.07;;;;;;;;;;5006044;28;20040;-83
2022/11/26 11:16:07;;;;;;;18.73;11.85;;;;;;;;;;5005700;28;20297;-83
2022/11/26 11:18:36;;;;;;;16.50;13.05;;;;;;;;;;5006449;28;20037;-83
2022/11/26 11:21:05;;;;;;;19.50;11.98;;;;;;;;;;5011243;28;20030;-83
2022/11/26 11:23:36;;;;;;;22.42;13.25;;;;;;;;;;4987298;28;20386;-83
2022/11/26 11:26:23;;;;;;;20.52;11.55;;;;;;;;;;4983072;28;20038;-85
2022/11/26 11:28:52;;;;;;;15.27;11.27;;;;;;;;;;4992137;28;20033;-84
2022/11/26 11:31:22;;;;;;;15.93;12.18;;;;;;;;;;4975652;28;20051;-85
2022/11/26 11:33:49;;;;;;;18.88;12.23;;;;;;;;;;4998154;28;20499;-85
2022/11/26 11:36:28;;;;;;;22.38;11.68;;;;;;;;;;4987364;28;20400;-84
2022/11/26 11:38:54;;;;;;;20.95;12.60;;;;;;;;;;5001473;28;20051;-85
2022/11/26 11:41:31;;;;;;;15.65;12.10;;;;;;;;;;4991111;28;20428;-85
2022/11/26 11:44:07;;;;;;;21.10;12.23;;;;;;;;;;4982744;28;20046;-85
2022/11/26 11:46:48;;;;;;;23.08;13.48;;;;;;;;;;5006250;28;20033;-85
2022/11/26 11:49:14;;;;;;;18.33;12.57;;;;;;;;;;4982539;28;20033;-85
2022/11/26 11:51:57;;;;;;;17.67;14.63;;;;;;;;;;5005925;28;20069;-85
2022/11/26 11:54:45;;;;;;;15.85;12.40;;;;;;;;;;5006562;28;20029;-85
2022/11/26 11:57:22;;;;;;;18.42;13.07;;;;;;;;;;5008987;28;20038;-84
2022/11/26 12:00:36;;;;;;;17.52;12.27;;;;;;;;;;4983233;28;20030;-85
2022/11/26 12:02:47;;;;;;;22.30;14.90;;;;;;;;;;4993940;28;20049;-85
2022/11/26 12:05:17;;;;;;;21.42;15.10;;;;;;;;;;5013560;28;20500;-85
2022/11/26 12:07:47;;;;;;;27.25;14.73;;;;;;;;;;5005305;28;20030;-85
2022/11/26 12:10:24;;;;;;;21.67;14.45;;;;;;;;;;5008203;28;20033;-85
2022/11/26 12:12:57;;;;;;;24.58;13.25;;;;;;;;;;5003578;28;20040;-85
2022/11/26 12:15:41;;;;;;;22.80;12.30;;;;;;;;;;4998836;28;20029;-85
2022/11/26 12:18:19;;;;;;;18.98;10.23;;;;;;;;;;4983140;28;20034;-85
2022/11/26 12:20:47;;;;;;;18.50;13.60;;;;;;;;;;4960912;28;20034;-81
2022/11/26 12:23:28;;;;;;;27.00;13.25;;;;;;;;;;4985229;28;20042;-82
2022/11/26 12:26:00;;;;;;;20.42;13.20;;;;;;;;;;5013847;28;20026;-83
2022/11/26 12:28:30;;;;;;;18.17;13.32;;;;;;;;;;4992783;28;20034;-84
2022/11/26 12:31:04;;;;;;;15.63;10.13;;;;;;;;;;5008656;28;20038;-84
2022/11/26 12:33:35;;;;;;;11.27;10.13;;;;;;;;;;5008128;28;20034;-85
2022/11/26 12:36:06;;;;;;;15.05;11.23;;;;;;;;;;5005513;28;20390;-85
2022/11/26 12:38:45;;;;;;;16.52;12.95;;;;;;;;;;5003369;28;20041;-84
2022/11/26 12:41:14;;;;;;;17.60;12.43;;;;;;;;;;4985724;28;20046;-85
2022/11/26 12:43:59;;;;;;;14.15;8.80;;;;;;;;;;4998525;28;20031;-84
2022/11/26 12:46:29;;;;;;;17.55;11.15;;;;;;;;;;5005142;28;20388;-84
2022/11/26 12:49:07;;;;;;;15.50;9.18;;;;;;;;;;4979988;28;20040;-85
2022/11/26 12:51:37;;;;;;;13.10;10.23;;;;;;;;;;5003592;28;20029;-85
2022/11/26 12:54:27;;;;;;;17.85;9.10;;;;;;;;;;4993252;28;20042;-84
2022/11/26 12:56:58;;;;;;;12.75;8.45;;;;;;;;;;4990110;28;20420;-85
2022/11/26 12:59:36;;;;;;;13.80;9.30;;;;;;;;;;5006553;28;20044;-79
2022/11/26 13:02:16;;;;;;;14.40;8.90;;;;;;;;;;5013049;28;20029;-82
2022/11/26 13:04:42;;;;;;;12.50;8.05;;;;;;;;;;4986312;28;20029;-83
2022/11/26 13:07:13;;;;;;;10.02;7.75;;;;;;;;;;5007726;28;20502;-82
2022/11/26 13:09:51;;;;;;;12.95;8.60;;;;;;;;;;4989392;28;20038;-82
2022/11/26 13:12:38;;;;;;;14.15;11.13;;;;;;;;;;4975771;28;20388;-83
2022/11/26 13:15:06;;;;;;;15.05;10.55;;;;;;;;;;4971111;28;20038;-82
2022/11/26 13:17:41;;;;;;;16.00;9.63;;;;;;;;;;5004452;28;20030;-82
2022/11/26 13:20:10;;;;;;;15.05;10.05;;;;;;;;;;4977379;28;20034;-82
2022/11/26 13:22:54;;;;;;;15.13;9.45;;;;;;;;;;4999232;22;22252;-76
2022/11/26 13:25:20;;;;;;;23.40;12.27;;;;;;;;;;4984847;28;20037;-74
2022/11/26 13:28:00;;;;;;;10.80;9.70;;;;;;;;;;4993176;28;20492;-72
2022/11/26 13:30:28;;;;;;;16.63;10.68;;;;;;;;;;4991529;28;20029;-74
2022/11/26 13:32:54;;;;;;;14.80;10.18;;;;;;;;;;4984285;28;20081;-74
2022/11/26 13:35:26;;;;;;;15.43;9.73;;;;;;;;;;4979714;28;20031;-74
2022/11/26 13:37:55;;;;;;;13.15;9.35;;;;;;;;;;4979593;28;20034;-74
2022/11/26 13:40:21;;;;;;;22.50;8.85;;;;;;;;;;4961522;28;20521;-74
2022/11/26 13:42:55;;;;;;;12.48;8.52;;;;;;;;;;4997154;28;20105;-74
2022/11/26 13:45:35;;;;;;;16.65;10.52;;;;;;;;;;4973205;28;20393;-74
2022/11/26 13:48:13;;;;;;;14.15;8.98;;;;;;;;;;4978948;28;20038;-74
2022/11/26 13:50:48;;;;;;;18.10;8.90;;;;;;;;;;4978107;28;20053;-73
2022/11/26 13:53:21;;;;;;;13.02;8.35;;;;;;;;;;4974059;28;20031;-74
2022/11/26 13:55:59;;;;;;;22.63;9.57;;;;;;;;;;4987388;28;20036;-74
2022/11/26 13:58:27;;;;;;;13.93;9.00;;;;;;;;;;4972904;28;20031;-74
2022/11/26 14:00:53;;;;;;;16.40;10.68;;;;;;;;;;4984890;28;20053;-74
2022/11/26 14:03:40;;;;;;;14.13;9.88;;;;;;;;;;4974190;28;20491;-73
2022/11/26 14:06:07;;;;;;;20.65;11.10;;;;;;;;;;4999662;28;20033;-74
2022/11/26 14:08:38;;;;;;;15.48;9.73;;;;;;;;;;4975578;28;20027;-73
2022/11/26 14:11:06;;;;;;;18.63;9.73;;;;;;;;;;4970965;28;20034;-73
2022/11/26 14:13:32;;;;;;;10.52;9.10;;;;;;;;;;4981691;28;20500;-73
2022/11/26 14:16:02;;;;;;;12.05;9.10;;;;;;;;;;4970970;28;20030;-74
2022/11/26 14:18:52;;;;;;;14.02;9.27;;;;;;;;;;4975397;28;20038;-74
2022/11/26 14:21:18;;;;;;;11.57;6.80;;;;;;;;;;4970951;28;20464;-74
2022/11/26 14:23:51;;;;;;;12.25;8.00;;;;;;;;;;4983232;28;20420;-74
2022/11/26 14:26:33;;;;;;;14.93;9.90;;;;;;;;;;4976946;28;20026;-73
2022/11/26 14:29:08;;;;;;;20.25;8.55;;;;;;;;;;4982709;28;20063;-74
2022/11/26 14:31:46;;;;;;;17.58;12.93;;;;;;;;;;4995726;28;20030;-74
2022/11/26 14:34:37;;;;;;;13.73;9.45;;;;;;;;;;4980954;28;20035;-74
2022/11/26 14:37:16;;;;;;;14.10;9.15;;;;;;;;;;4975189;28;20037;-74
2022/11/26 14:39:44;;;;;;;14.85;11.27;;;;;;;;;;4978126;28;20397;-74
2022/11/26 14:42:16;;;;;;;13.50;8.77;;;;;;;;;;4981727;28;20406;-74